createdAt,value
2023-03-24T00:01:30.568Z,15.62
2023-03-24T00:04:01.179Z,15.85
2023-03-24T00:06:29.552Z,15.77
2023-03-24T00:08:58.083Z,15.83
2023-03-24T00:11:30.030Z,16.00
2023-03-24T00:14:00.094Z,16.03
2023-03-24T00:16:28.396Z,16.02
2023-03-24T00:18:57.926Z,16.18
2023-03-24T00:21:27.193Z,16.08
2023-03-24T00:23:58.461Z,15.98
2023-03-24T00:26:26.922Z,16.04
2023-03-24T00:28:57.157Z,15.91
2023-03-24T00:31:27.542Z,15.96
2023-03-24T00:33:56.178Z,16.18
2023-03-24T00:36:26.468Z,15.80
2023-03-24T00:38:55.118Z,16.16
2023-03-24T00:41:27.225Z,16.08
2023-03-24T00:43:57.134Z,15.84
2023-03-24T00:46:30.235Z,15.89
2023-03-24T00:49:06.178Z,16.05
2023-03-24T00:51:36.504Z,15.76
2023-03-24T00:54:05.749Z,16.06
2023-03-24T00:56:35.910Z,15.97
2023-03-24T00:59:05.347Z,16.02
2023-03-24T01:01:36.690Z,15.80
2023-03-24T01:04:06.343Z,15.99
2023-03-24T01:06:36.769Z,16.00
2023-03-24T01:09:06.047Z,16.16
2023-03-24T01:11:40.304Z,15.84
2023-03-24T01:14:09.890Z,16.17
2023-03-24T01:16:40.016Z,15.75
2023-03-24T01:19:09.608Z,16.00
2023-03-24T01:21:38.216Z,15.96
2023-03-24T01:24:07.881Z,15.80
2023-03-24T01:26:36.096Z,16.17
2023-03-24T01:29:04.886Z,16.13
2023-03-24T01:31:33.431Z,16.18
2023-03-24T01:34:03.757Z,15.84
2023-03-24T01:36:32.094Z,16.36
2023-03-24T01:39:01.488Z,16.04
2023-03-24T01:41:34.489Z,15.80
2023-03-24T01:44:03.529Z,15.98
2023-03-24T01:46:33.510Z,16.14
2023-03-24T01:49:06.381Z,15.82
2023-03-24T01:51:36.705Z,15.91
2023-03-24T01:54:09.452Z,15.91
2023-03-24T01:56:39.971Z,16.23
2023-03-24T01:59:11.301Z,15.81
2023-03-24T02:01:39.559Z,16.47
2023-03-24T02:04:11.467Z,16.22
2023-03-24T02:06:41.564Z,15.32
2023-03-24T02:09:10.637Z,16.35
2023-03-24T02:11:40.864Z,16.42
2023-03-24T02:14:10.360Z,16.37
2023-03-24T02:16:52.540Z,16.19
2023-03-24T02:19:54.199Z,15.98
2023-03-24T02:22:48.137Z,15.94
2023-03-24T02:25:43.862Z,15.78
2023-03-24T02:28:29.009Z,15.89
2023-03-24T02:31:48.212Z,15.69
2023-03-24T02:34:43.890Z,16.10
2023-03-24T02:37:27.780Z,16.20
2023-03-24T02:40:18.314Z,16.17
2023-03-24T02:43:02.458Z,16.47
2023-03-24T02:45:39.536Z,16.92
2023-03-24T02:48:26.159Z,16.39
2023-03-24T02:51:11.323Z,16.44
2023-03-24T02:53:44.516Z,17.04
2023-03-24T02:56:22.516Z,16.81
2023-03-24T02:59:29.614Z,16.32
2023-03-24T03:02:10.252Z,16.63
2023-03-24T03:04:42.140Z,16.55
2023-03-24T03:07:17.566Z,16.62
2023-03-24T03:09:53.790Z,16.60
2023-03-24T03:12:29.361Z,16.75
2023-03-24T03:15:07.190Z,17.27
2023-03-24T03:17:48.538Z,17.08
2023-03-24T03:20:31.606Z,17.63
2023-03-24T03:23:04.547Z,17.60
2023-03-24T03:25:42.675Z,17.73
2023-03-24T03:28:17.433Z,17.84
2023-03-24T03:30:49.766Z,18.34
2023-03-24T03:33:25.325Z,18.17
2023-03-24T03:35:55.946Z,18.39
2023-03-24T03:38:27.220Z,18.55
2023-03-24T03:40:57.533Z,18.35
2023-03-24T03:43:28.413Z,18.33
2023-03-24T03:45:57.439Z,18.76
2023-03-24T03:48:26.889Z,18.89
2023-03-24T03:51:10.101Z,18.71
2023-03-24T03:53:46.362Z,18.29
2023-03-24T03:56:18.358Z,18.94
2023-03-24T03:58:49.266Z,18.73
2023-03-24T04:01:20.633Z,18.88
2023-03-24T04:04:00.922Z,18.44
2023-03-24T04:06:36.162Z,18.90
2023-03-24T04:09:13.040Z,18.85
2023-03-24T04:11:50.685Z,19.12
2023-03-24T04:14:31.933Z,18.67
2023-03-24T04:17:04.781Z,19.34
2023-03-24T04:19:41.388Z,19.27
2023-03-24T04:22:21.788Z,19.57
2023-03-24T04:24:54.828Z,19.37
2023-03-24T04:27:28.303Z,19.15
2023-03-24T04:30:06.366Z,19.18
2023-03-24T04:32:41.616Z,19.53
2023-03-24T04:35:13.393Z,19.54
2023-03-24T04:37:42.118Z,19.98
2023-03-24T04:40:15.853Z,19.89
2023-03-24T04:42:45.643Z,18.67
2023-03-24T04:45:17.236Z,19.85
2023-03-24T04:47:48.979Z,19.99
2023-03-24T04:50:31.172Z,19.75
2023-03-24T04:53:00.637Z,20.71
2023-03-24T04:55:54.858Z,19.99
2023-03-24T04:58:24.259Z,20.73
2023-03-24T05:00:55.666Z,21.00
2023-03-24T05:03:24.513Z,21.53
2023-03-24T05:05:53.697Z,21.21
2023-03-24T05:08:22.582Z,21.61
2023-03-24T05:10:50.888Z,21.58
2023-03-24T05:13:19.456Z,21.44
2023-03-24T05:15:47.820Z,21.89
2023-03-24T05:18:18.087Z,21.77
2023-03-24T05:20:46.494Z,21.57
2023-03-24T05:23:17.852Z,21.98
2023-03-24T05:25:47.774Z,21.97
2023-03-24T05:28:16.493Z,22.55
2023-03-24T05:30:44.802Z,22.52
2023-03-24T05:33:13.304Z,23.00
2023-03-24T05:35:43.331Z,22.49
2023-03-24T05:38:12.061Z,23.38
2023-03-24T05:40:41.315Z,23.37
2023-03-24T05:43:10.108Z,23.11
2023-03-24T05:45:38.420Z,23.05
2023-03-24T05:48:07.520Z,23.57
2023-03-24T05:50:35.995Z,23.64
2023-03-24T05:53:06.062Z,23.08
2023-03-24T05:55:34.518Z,23.66
2023-03-24T05:58:03.671Z,23.89
2023-03-24T06:00:33.586Z,23.72
2023-03-24T06:03:04.202Z,23.82
2023-03-24T06:05:34.529Z,23.61
2023-03-24T06:08:03.766Z,23.48
2023-03-24T06:10:33.601Z,23.07
2023-03-24T06:13:02.114Z,23.29
2023-03-24T06:15:31.030Z,23.31
2023-03-24T06:18:01.262Z,23.48
2023-03-24T06:20:29.661Z,23.33
2023-03-24T06:23:00.120Z,22.83
2023-03-24T06:25:30.071Z,23.00
2023-03-24T06:28:05.962Z,22.48
2023-03-24T06:30:34.505Z,22.61
2023-03-24T06:33:03.531Z,22.86
2023-03-24T06:35:32.390Z,22.72
2023-03-24T06:38:01.466Z,22.33
2023-03-24T06:40:30.347Z,22.46
2023-03-24T06:43:00.660Z,22.14
2023-03-24T06:45:30.731Z,22.61
2023-03-24T06:48:00.148Z,22.55
2023-03-24T06:50:33.234Z,22.07
2023-03-24T06:53:02.643Z,21.97
2023-03-24T06:55:31.139Z,21.81
2023-03-24T06:58:02.582Z,21.44
2023-03-24T07:00:30.930Z,21.61
2023-03-24T07:02:59.904Z,21.63
2023-03-24T07:05:32.751Z,21.82
2023-03-24T07:10:34.050Z,21.38
2023-03-24T07:13:04.382Z,20.96
2023-03-24T07:15:32.697Z,21.25
2023-03-24T07:18:01.603Z,20.87
2023-03-24T07:20:29.987Z,20.45
2023-03-24T07:22:59.227Z,20.14
2023-03-24T07:25:27.795Z,20.11
2023-03-24T07:28:08.891Z,20.07
2023-03-24T07:30:51.648Z,19.76
2023-03-24T07:33:24.453Z,20.11
2023-03-24T07:35:56.278Z,19.48
2023-03-24T07:38:25.100Z,19.99
2023-03-24T07:40:54.074Z,19.89
2023-03-24T07:43:23.049Z,19.72
2023-03-24T07:45:53.229Z,19.40
2023-03-24T07:48:21.880Z,19.53
2023-03-24T07:50:50.410Z,19.14
2023-03-24T07:53:20.351Z,18.97
2023-03-24T07:55:49.534Z,18.96
2023-03-24T07:58:18.309Z,18.56
2023-03-24T08:00:46.895Z,18.23
2023-03-24T08:03:17.566Z,17.44
2023-03-24T08:05:47.698Z,16.99
2023-03-24T08:08:17.022Z,16.87
2023-03-24T08:10:46.819Z,16.25
2023-03-24T08:13:15.794Z,15.68
2023-03-24T08:15:44.264Z,15.11
2023-03-24T08:18:13.276Z,15.39
2023-03-24T08:20:43.391Z,15.14
2023-03-24T08:23:12.111Z,15.12
2023-03-24T08:25:40.393Z,14.59
2023-03-24T08:28:09.190Z,14.69
2023-03-24T08:30:37.492Z,14.35
2023-03-24T08:33:06.384Z,13.32
2023-03-24T08:35:39.104Z,11.92
2023-03-24T08:38:11.244Z,11.08
2023-03-24T08:40:41.175Z,10.25
2023-03-24T08:43:11.153Z,9.67
2023-03-24T08:45:40.141Z,9.12
2023-03-24T08:48:09.810Z,9.25
2023-03-24T08:50:39.656Z,9.30
2023-03-24T08:53:11.319Z,9.34
2023-03-24T08:55:41.967Z,9.39
2023-03-24T08:58:12.663Z,7.87
2023-03-24T09:00:41.786Z,8.95
2023-03-24T09:03:11.782Z,8.84
2023-03-24T09:05:44.811Z,8.77
2023-03-24T09:08:16.544Z,8.16
2023-03-24T09:10:47.251Z,8.33
2023-03-24T09:13:16.806Z,7.46
2023-03-24T09:15:49.413Z,6.96
2023-03-24T09:18:18.705Z,6.52
2023-03-24T09:20:48.179Z,6.21
2023-03-24T09:23:18.848Z,5.77
2023-03-24T09:25:47.939Z,5.86
2023-03-24T09:28:17.449Z,5.06
2023-03-24T09:30:45.914Z,5.32
2023-03-24T09:33:14.937Z,5.14
2023-03-24T09:35:43.451Z,5.65
2023-03-24T09:38:12.792Z,5.97
2023-03-24T09:40:43.787Z,5.72
2023-03-24T09:43:18.140Z,5.85
2023-03-24T09:45:51.355Z,6.82
2023-03-24T09:48:31.898Z,7.24
2023-03-24T09:51:03.684Z,7.66
2023-03-24T09:53:38.172Z,8.29
2023-03-24T09:56:13.447Z,8.55
2023-03-24T09:58:42.838Z,9.24
2023-03-24T10:01:15.479Z,9.38
2023-03-24T10:03:44.396Z,10.09
2023-03-24T10:06:18.274Z,10.01
2023-03-24T10:08:51.008Z,9.71
2023-03-24T10:11:26.938Z,8.99
2023-03-24T10:14:09.182Z,8.87
2023-03-24T10:16:41.810Z,9.00
2023-03-24T10:19:20.587Z,8.97
2023-03-24T10:21:56.723Z,8.66
2023-03-24T10:24:30.825Z,8.18
2023-03-24T10:27:05.775Z,7.72
2023-03-24T10:29:35.783Z,7.86
2023-03-24T10:32:07.748Z,8.08
2023-03-24T10:34:37.267Z,8.37
2023-03-24T10:37:05.720Z,8.30
2023-03-24T10:39:44.061Z,8.80
2023-03-24T10:42:22.065Z,8.46
2023-03-24T10:44:52.076Z,8.51
2023-03-24T10:47:25.086Z,8.57
2023-03-24T10:49:55.973Z,8.67
2023-03-24T10:52:25.654Z,9.17
2023-03-24T10:54:58.881Z,8.69
2023-03-24T10:57:29.257Z,8.56
2023-03-24T10:59:59.927Z,8.30
2023-03-24T11:02:31.701Z,8.31
2023-03-24T11:05:02.575Z,8.33
2023-03-24T11:07:34.330Z,8.02
2023-03-24T11:10:07.592Z,7.74
2023-03-24T11:12:39.233Z,7.49
2023-03-24T11:15:22.396Z,7.01
2023-03-24T11:17:57.350Z,7.38
2023-03-24T11:20:31.055Z,7.35
2023-03-24T11:23:02.923Z,7.09
2023-03-24T11:25:34.334Z,7.13
2023-03-24T11:28:07.014Z,6.94
2023-03-24T11:30:37.532Z,6.95
2023-03-24T11:33:07.389Z,7.40
2023-03-24T11:35:41.737Z,7.60
2023-03-24T11:38:17.668Z,7.47
2023-03-24T11:40:58.338Z,7.37
2023-03-24T11:43:28.579Z,7.64
2023-03-24T11:46:01.487Z,7.65
2023-03-24T11:48:34.266Z,7.93
2023-03-24T11:51:04.626Z,8.29
2023-03-24T11:53:40.532Z,8.32
2023-03-24T11:56:13.322Z,8.27
2023-03-24T11:58:47.358Z,8.57
2023-03-24T12:01:25.942Z,8.68
2023-03-24T12:04:26.385Z,8.63
2023-03-24T12:07:07.360Z,9.03
2023-03-24T12:09:41.038Z,8.75
2023-03-24T12:12:22.586Z,9.10
2023-03-24T12:15:14.431Z,9.12
2023-03-24T12:17:57.065Z,9.43
2023-03-24T12:20:28.341Z,9.75
2023-03-24T12:23:01.394Z,9.74
2023-03-24T12:25:41.613Z,9.77
2023-03-24T12:28:29.634Z,9.99
2023-03-24T12:31:11.601Z,10.16
2023-03-24T12:33:47.166Z,10.43
2023-03-24T12:36:25.112Z,10.76
2023-03-24T12:39:05.076Z,10.59
2023-03-24T12:41:43.631Z,10.71
2023-03-24T12:44:26.712Z,10.65
2023-03-24T12:47:04.094Z,10.73
2023-03-24T12:49:43.077Z,10.79
2023-03-24T12:52:22.981Z,10.89
2023-03-24T12:54:54.714Z,11.51
2023-03-24T12:57:25.837Z,11.25
2023-03-24T12:59:58.262Z,11.41
2023-03-24T13:02:31.641Z,11.02
2023-03-24T13:05:06.104Z,11.13
2023-03-24T13:07:39.428Z,11.44
2023-03-24T13:10:15.166Z,10.89
2023-03-24T13:12:45.764Z,11.53
2023-03-24T13:15:17.867Z,11.00
2023-03-24T13:17:50.468Z,11.09
2023-03-24T13:20:26.061Z,10.97
2023-03-24T13:22:54.499Z,11.72
2023-03-24T13:25:29.606Z,11.35
2023-03-24T13:28:01.074Z,11.26
2023-03-24T13:30:33.400Z,11.62
2023-03-24T13:33:06.530Z,11.07
2023-03-24T13:35:54.057Z,11.17
2023-03-24T13:38:28.417Z,10.99
2023-03-24T13:40:57.756Z,11.78
2023-03-24T13:43:27.811Z,11.74
2023-03-24T13:46:00.945Z,11.44
2023-03-24T13:48:37.799Z,11.23
2023-03-24T13:51:10.175Z,11.29
2023-03-24T13:53:41.041Z,11.42
2023-03-24T13:56:09.622Z,10.75
2023-03-24T13:58:51.022Z,11.16
2023-03-24T14:01:33.602Z,11.51
2023-03-24T14:04:27.698Z,11.30
2023-03-24T14:06:57.127Z,11.80
2023-03-24T14:09:27.362Z,11.91
2023-03-24T14:12:19.252Z,11.46
2023-03-24T14:15:15.215Z,11.94
2023-03-24T14:17:45.984Z,12.61
2023-03-24T14:20:27.312Z,12.09
2023-03-24T14:22:57.025Z,12.88
2023-03-24T14:25:30.781Z,11.71
2023-03-24T14:28:21.805Z,11.97
2023-03-24T14:31:04.961Z,12.01
2023-03-24T14:33:33.750Z,12.69
2023-03-24T14:36:12.104Z,11.87
2023-03-24T14:38:43.313Z,11.40
2023-03-24T14:41:16.213Z,11.31
2023-03-24T14:43:56.409Z,10.78
2023-03-24T14:46:40.127Z,10.45
2023-03-24T14:49:18.930Z,11.01
2023-03-24T14:52:21.006Z,10.70
2023-03-24T14:54:53.786Z,10.99
2023-03-24T14:57:25.161Z,11.15
2023-03-24T14:59:58.501Z,11.19
2023-03-24T15:02:31.355Z,11.45
2023-03-24T15:05:31.683Z,11.52
2023-03-24T15:08:04.736Z,11.62
2023-03-24T15:10:37.489Z,11.79
2023-03-24T15:13:06.232Z,12.02
2023-03-24T15:15:35.035Z,11.73
2023-03-24T15:18:04.197Z,12.19
2023-03-24T15:20:35.917Z,11.73
2023-03-24T15:23:09.044Z,11.71
2023-03-24T15:25:43.047Z,11.65
2023-03-24T15:28:17.622Z,11.50
2023-03-24T15:30:46.704Z,12.04
2023-03-24T15:33:15.450Z,12.27
2023-03-24T15:35:44.693Z,12.33
2023-03-24T15:38:21.999Z,12.16
2023-03-24T15:40:58.510Z,12.80
2023-03-24T15:43:26.984Z,13.41
2023-03-24T15:46:08.842Z,13.92
2023-03-24T15:48:40.969Z,14.13
2023-03-24T15:51:11.768Z,14.53
2023-03-24T15:53:44.573Z,14.57
2023-03-24T15:56:19.546Z,14.89
2023-03-24T15:58:52.813Z,15.32
2023-03-24T16:01:27.499Z,15.40
2023-03-24T16:03:56.199Z,16.19
2023-03-24T16:06:30.345Z,16.30
2023-03-24T16:09:03.442Z,16.51
2023-03-24T16:11:32.154Z,17.48
2023-03-24T16:14:21.916Z,16.96
2023-03-24T16:16:55.161Z,17.45
2023-03-24T16:19:23.778Z,18.23
2023-03-24T16:21:52.555Z,18.28
2023-03-24T16:24:22.794Z,18.41
2023-03-24T16:26:52.011Z,18.57
2023-03-24T16:29:21.996Z,18.50
2023-03-24T16:31:52.347Z,18.59
2023-03-24T16:34:22.148Z,18.69
2023-03-24T16:36:52.538Z,18.77
2023-03-24T16:39:23.820Z,18.97
2023-03-24T16:41:52.661Z,19.80
2023-03-24T16:44:21.946Z,19.57
2023-03-24T16:46:53.787Z,19.67
2023-03-24T16:49:23.937Z,20.26
2023-03-24T16:51:53.849Z,20.32
2023-03-24T16:54:23.626Z,20.26
2023-03-24T16:56:52.414Z,20.71
2023-03-24T16:59:21.470Z,20.72
2023-03-24T17:01:53.573Z,20.38
2023-03-24T17:04:23.787Z,20.60
2023-03-24T17:06:54.695Z,20.65
2023-03-24T17:09:24.847Z,21.06
2023-03-24T17:11:54.837Z,20.81
2023-03-24T17:14:23.334Z,21.31
2023-03-24T17:16:53.495Z,21.83
2023-03-24T17:19:23.300Z,21.98
2023-03-24T17:21:56.859Z,21.89
2023-03-24T17:24:26.616Z,21.88
2023-03-24T17:26:55.590Z,23.04
2023-03-24T17:29:23.917Z,22.72
2023-03-24T17:31:52.859Z,22.45
2023-03-24T17:34:22.248Z,22.09
2023-03-24T17:36:51.946Z,21.64
2023-03-24T17:39:21.981Z,21.25
2023-03-24T17:41:52.076Z,21.11
2023-03-24T17:44:20.661Z,21.00
2023-03-24T17:46:49.400Z,21.26
2023-03-24T17:49:17.902Z,21.25
2023-03-24T17:51:46.657Z,21.09
2023-03-24T17:54:19.262Z,21.33
2023-03-24T17:56:48.098Z,21.41
2023-03-24T17:59:17.911Z,20.86
2023-03-24T18:01:47.389Z,21.32
2023-03-24T18:04:17.473Z,21.60
2023-03-24T18:06:47.868Z,20.96
2023-03-24T18:09:17.392Z,21.10
2023-03-24T18:11:47.781Z,21.26
2023-03-24T18:14:18.217Z,20.83
2023-03-24T18:16:47.324Z,21.08
2023-03-24T18:19:16.327Z,21.63
2023-03-24T18:21:45.532Z,21.60
2023-03-24T18:24:14.164Z,21.55
2023-03-24T18:26:42.656Z,21.09
2023-03-24T18:29:11.688Z,21.34
2023-03-24T18:31:41.825Z,20.91
2023-03-24T18:34:10.145Z,21.61
2023-03-24T18:36:40.428Z,21.25
2023-03-24T18:39:10.085Z,21.23
2023-03-24T18:41:39.374Z,21.26
2023-03-24T18:44:09.136Z,21.20
2023-03-24T18:46:37.900Z,21.77
2023-03-24T18:49:08.484Z,21.77
2023-03-24T18:51:37.205Z,22.14
2023-03-24T18:54:06.756Z,22.36
2023-03-24T18:56:35.780Z,22.19
2023-03-24T18:59:04.022Z,22.21
2023-03-24T19:01:33.432Z,21.91
2023-03-24T19:04:02.409Z,22.10
2023-03-24T19:06:35.423Z,21.94
2023-03-24T19:09:05.562Z,21.76
2023-03-24T19:11:34.199Z,22.00
2023-03-24T19:14:02.861Z,21.70
2023-03-24T19:16:31.554Z,22.17
2023-03-24T19:19:00.293Z,22.35
2023-03-24T19:21:29.067Z,22.61
2023-03-24T19:23:59.093Z,21.75
2023-03-24T19:26:27.751Z,22.26
2023-03-24T19:28:57.587Z,21.87
2023-03-24T19:31:26.234Z,22.08
2023-03-24T19:33:55.128Z,21.98
2023-03-24T19:36:25.562Z,21.92
2023-03-24T19:38:53.861Z,22.22
2023-03-24T19:41:26.419Z,22.02
2023-03-24T19:43:54.834Z,22.31
2023-03-24T19:46:23.374Z,22.08
2023-03-24T19:48:51.788Z,22.45
2023-03-24T19:51:21.319Z,22.09
2023-03-24T19:53:49.602Z,22.08
2023-03-24T19:56:20.893Z,22.37
2023-03-24T19:58:51.037Z,21.79
2023-03-24T20:01:21.545Z,22.53
2023-03-24T20:03:49.973Z,21.97
2023-03-24T20:06:19.912Z,22.23
2023-03-24T20:08:48.290Z,22.20
2023-03-24T20:11:16.877Z,22.75
2023-03-24T20:13:45.142Z,22.43
2023-03-24T20:16:15.266Z,22.13
2023-03-24T20:18:43.559Z,22.26
2023-03-24T20:21:13.914Z,22.22
2023-03-24T20:23:42.181Z,22.17
2023-03-24T20:26:10.734Z,22.29
2023-03-24T20:28:39.006Z,22.64
2023-03-24T20:31:08.315Z,22.77
2023-03-24T20:33:38.071Z,22.23
2023-03-24T20:36:07.545Z,22.64
2023-03-24T20:38:35.777Z,22.78
2023-03-24T20:41:06.329Z,22.47
2023-03-24T20:43:36.300Z,22.13
2023-03-24T20:46:05.558Z,22.43
2023-03-24T20:48:34.114Z,22.62
2023-03-24T20:51:04.268Z,22.28
2023-03-24T20:53:35.071Z,22.50
2023-03-24T20:56:06.748Z,22.44
2023-03-24T20:58:34.901Z,21.54
2023-03-24T21:01:08.288Z,22.54
2023-03-24T21:03:37.192Z,22.52
2023-03-24T21:06:10.312Z,22.15
2023-03-24T21:08:38.694Z,22.98
2023-03-24T21:11:07.247Z,22.85
2023-03-24T21:13:37.867Z,22.68
2023-03-24T21:16:08.624Z,21.76
2023-03-24T21:18:37.924Z,23.04
2023-03-24T21:21:12.738Z,22.82
2023-03-24T21:23:41.781Z,23.12
2023-03-24T21:26:13.344Z,22.88
2023-03-24T21:28:41.612Z,22.90
2023-03-24T21:31:12.851Z,22.38
2023-03-24T21:33:43.472Z,22.75
2023-03-24T21:36:13.931Z,22.34
2023-03-24T21:38:42.780Z,22.69
2023-03-24T21:41:11.570Z,22.29
2023-03-24T21:43:41.101Z,22.69
2023-03-24T21:46:15.011Z,22.48
2023-03-24T21:48:50.267Z,22.34
2023-03-24T21:51:25.150Z,21.47
2023-03-24T21:53:55.731Z,21.86
2023-03-24T21:56:24.875Z,21.83
2023-03-24T21:58:54.983Z,21.81
2023-03-24T22:01:23.784Z,22.40
2023-03-24T22:03:54.374Z,21.93
2023-03-24T22:06:24.822Z,21.98
2023-03-24T22:08:58.347Z,22.10
2023-03-24T22:11:27.351Z,22.25
2023-03-24T22:13:55.627Z,21.98
2023-03-24T22:16:24.163Z,21.85
2023-03-24T22:18:53.379Z,22.23
2023-03-24T22:21:21.930Z,22.07
2023-03-24T22:23:51.608Z,21.51
2023-03-24T22:26:20.489Z,21.87
2023-03-24T22:28:48.702Z,21.69
2023-03-24T22:31:17.758Z,22.03
2023-03-24T22:33:48.077Z,21.81
2023-03-24T22:36:17.732Z,22.18
2023-03-24T22:38:46.542Z,22.34
2023-03-24T22:41:16.792Z,21.74
2023-03-24T22:43:44.972Z,21.94
2023-03-24T22:46:14.588Z,22.20
2023-03-24T22:48:42.958Z,21.93
2023-03-24T22:51:16.999Z,22.30
2023-03-24T22:53:45.261Z,22.40
2023-03-24T22:56:13.825Z,22.49
2023-03-24T22:58:43.654Z,21.87
2023-03-24T23:01:12.120Z,22.25
2023-03-24T23:03:40.582Z,21.93
2023-03-24T23:06:11.135Z,22.08
2023-03-24T23:08:40.281Z,22.30
2023-03-24T23:11:09.479Z,22.02
2023-03-24T23:13:38.954Z,22.36
2023-03-24T23:16:09.725Z,22.16
2023-03-24T23:18:38.580Z,22.16
2023-03-24T23:21:09.424Z,22.17
2023-03-24T23:23:38.739Z,22.20
2023-03-24T23:26:07.745Z,22.25
2023-03-24T23:28:36.481Z,22.38
2023-03-24T23:31:14.326Z,22.13
2023-03-24T23:33:43.147Z,22.82
2023-03-24T23:36:17.126Z,22.56
2023-03-24T23:38:50.613Z,22.15
2023-03-24T23:41:20.502Z,22.38
2023-03-24T23:43:49.082Z,22.56
2023-03-24T23:46:19.308Z,22.20
2023-03-24T23:48:47.732Z,22.30
2023-03-24T23:51:16.486Z,22.67
2023-03-24T23:53:44.681Z,22.64
2023-03-24T23:56:14.993Z,22.33
2023-03-24T23:58:43.597Z,22.83
